createdAt,value
2022-12-26T00:00:16.978Z,10.2
2022-12-26T00:01:19.914Z,10.2
2022-12-26T00:02:23.927Z,10.2
2022-12-26T00:03:28.016Z,10.2
2022-12-26T00:04:54.444Z,10.2
2022-12-26T00:05:58.278Z,10.2
2022-12-26T00:07:01.240Z,10.2
2022-12-26T00:08:03.984Z,10.2
2022-12-26T00:09:07.347Z,10.2
2022-12-26T00:10:10.592Z,10.2
2022-12-26T00:11:13.256Z,10.2
2022-12-26T00:12:16.071Z,10.2
2022-12-26T00:13:42.358Z,10.2
2022-12-26T00:14:45.213Z,10.2
2022-12-26T00:15:47.761Z,10.2
2022-12-26T00:16:51.017Z,10.2
2022-12-26T00:17:53.432Z,10.2
2022-12-26T00:18:56.407Z,10.2
2022-12-26T00:19:59.150Z,10.2
2022-12-26T00:21:03.247Z,10.2
2022-12-26T00:22:06.617Z,10.2
2022-12-26T00:23:09.503Z,10.2
2022-12-26T00:24:12.898Z,10.2
2022-12-26T00:25:16.433Z,10.2
2022-12-26T00:26:19.649Z,10.2
2022-12-26T00:27:23.009Z,10.2
2022-12-26T00:28:26.103Z,10.2
2022-12-26T00:29:29.106Z,10.2
2022-12-26T00:30:31.449Z,10.2
2022-12-26T00:31:35.002Z,10.2
2022-12-26T00:32:38.161Z,10.1
2022-12-26T00:33:40.887Z,10.1
2022-12-26T00:34:43.887Z,10.1
2022-12-26T00:35:46.721Z,10.1
2022-12-26T00:36:50.001Z,10.1
2022-12-26T00:37:52.416Z,10.1
2022-12-26T00:38:55.547Z,10.1
2022-12-26T00:39:58.988Z,10.1
2022-12-26T00:41:02.725Z,10
2022-12-26T00:42:05.220Z,10
2022-12-26T00:43:08.806Z,10
2022-12-26T00:44:12.125Z,10
2022-12-26T00:45:15.208Z,10
2022-12-26T00:46:18.639Z,10
2022-12-26T00:47:22.120Z,9.9
2022-12-26T00:48:24.958Z,9.9
2022-12-26T00:49:27.765Z,10
2022-12-26T00:51:18.497Z,9.9
2022-12-26T00:52:21.846Z,9.9
2022-12-26T00:53:24.656Z,9.9
2022-12-26T00:54:28.116Z,9.9
2022-12-26T00:55:31.579Z,9.9
2022-12-26T00:56:35.363Z,9.9
2022-12-26T00:57:38.222Z,9.9
2022-12-26T00:58:41.568Z,9.9
2022-12-26T00:59:44.099Z,9.8
2022-12-26T01:00:47.094Z,9.8
2022-12-26T01:01:50.969Z,9.8
2022-12-26T01:02:54.951Z,9.8
2022-12-26T01:03:58.883Z,9.8
2022-12-26T01:05:02.539Z,9.8
2022-12-26T01:06:05.627Z,9.8
2022-12-26T01:07:08.906Z,9.8
2022-12-26T01:08:25.625Z,9.7
2022-12-26T01:09:28.933Z,9.7
2022-12-26T01:10:32.445Z,9.7
2022-12-26T01:11:35.695Z,9.7
2022-12-26T01:12:39.559Z,9.7
2022-12-26T01:13:43.265Z,9.7
2022-12-26T01:14:46.493Z,9.7
2022-12-26T01:15:49.387Z,9.7
2022-12-26T01:16:52.132Z,9.7
2022-12-26T01:17:55.049Z,9.7
2022-12-26T01:18:58.042Z,9.7
2022-12-26T01:20:01.221Z,9.7
2022-12-26T01:21:04.234Z,9.7
2022-12-26T01:22:07.301Z,9.8
2022-12-26T01:23:10.567Z,9.7
2022-12-26T01:24:14.677Z,9.7
2022-12-26T01:25:18.762Z,9.7
2022-12-26T01:26:22.447Z,9.7
2022-12-26T01:27:25.682Z,9.7
2022-12-26T01:28:29.467Z,9.7
2022-12-26T01:29:33.168Z,9.7
2022-12-26T01:30:36.236Z,9.7
2022-12-26T01:31:39.202Z,9.7
2022-12-26T01:32:42.840Z,9.7
2022-12-26T01:33:45.611Z,9.7
2022-12-26T01:34:49.027Z,9.7
2022-12-26T01:35:51.837Z,9.7
2022-12-26T01:36:54.569Z,9.7
2022-12-26T01:37:57.656Z,9.7
2022-12-26T01:39:01.394Z,9.7
2022-12-26T01:40:04.405Z,9.7
2022-12-26T01:41:07.127Z,9.7
2022-12-26T01:42:10.066Z,9.7
2022-12-26T01:43:13.294Z,9.7
2022-12-26T01:44:17.135Z,9.7
2022-12-26T01:45:20.511Z,9.7
2022-12-26T01:46:24.299Z,9.7
2022-12-26T01:47:27.527Z,9.7
2022-12-26T01:48:30.518Z,9.7
2022-12-26T01:49:33.253Z,9.7
2022-12-26T01:50:36.032Z,9.7
2022-12-26T01:51:39.395Z,9.6
2022-12-26T01:52:42.386Z,9.6
2022-12-26T01:53:45.248Z,9.7
2022-12-26T01:54:48.340Z,9.7
2022-12-26T01:55:51.202Z,9.6
2022-12-26T01:56:54.375Z,9.7
2022-12-26T01:57:58.547Z,9.6
2022-12-26T01:59:01.634Z,9.6
2022-12-26T02:00:05.142Z,9.6
2022-12-26T02:01:08.473Z,9.6
2022-12-26T02:02:12.960Z,9.6
2022-12-26T02:03:16.252Z,9.6
2022-12-26T02:04:19.457Z,9.7
2022-12-26T02:05:23.115Z,9.7
2022-12-26T02:06:25.297Z,9.7
2022-12-26T02:07:28.482Z,9.7
2022-12-26T02:08:31.962Z,9.7
2022-12-26T02:09:34.216Z,9.7
2022-12-26T02:10:36.776Z,9.7
2022-12-26T02:11:39.306Z,9.7
2022-12-26T02:12:42.307Z,9.7
2022-12-26T02:13:45.515Z,9.7
2022-12-26T02:14:48.632Z,9.7
2022-12-26T02:15:52.358Z,9.7
2022-12-26T02:16:55.249Z,9.7
2022-12-26T02:17:58.594Z,9.7
2022-12-26T02:19:01.066Z,9.6
2022-12-26T02:20:04.235Z,9.6
2022-12-26T02:21:07.366Z,9.7
2022-12-26T02:22:09.898Z,9.6
2022-12-26T02:23:12.970Z,9.7
2022-12-26T02:24:16.357Z,9.6
2022-12-26T02:25:19.639Z,9.6
2022-12-26T02:26:23.018Z,9.6
2022-12-26T02:27:26.640Z,9.6
2022-12-26T02:28:29.634Z,9.6
2022-12-26T02:29:32.754Z,9.6
2022-12-26T02:30:35.560Z,9.6
2022-12-26T02:31:39.529Z,9.6
2022-12-26T02:32:43.427Z,9.7
2022-12-26T02:33:46.530Z,9.6
2022-12-26T02:34:49.822Z,9.7
2022-12-26T02:35:53.168Z,9.7
2022-12-26T02:36:56.245Z,9.6
2022-12-26T02:37:59.327Z,9.7
2022-12-26T02:39:46.537Z,9.7
2022-12-26T02:40:50.731Z,9.7
2022-12-26T02:41:53.512Z,9.7
2022-12-26T02:42:55.691Z,9.6
2022-12-26T02:43:58.499Z,9.6
2022-12-26T02:45:01.780Z,9.7
2022-12-26T02:46:05.204Z,9.6
2022-12-26T02:47:09.169Z,9.6
2022-12-26T02:48:12.503Z,9.6
2022-12-26T02:49:15.018Z,9.7
2022-12-26T02:50:18.288Z,9.7
2022-12-26T02:51:21.752Z,9.7
2022-12-26T02:52:24.582Z,9.7
2022-12-26T02:53:27.866Z,9.7
2022-12-26T02:54:30.947Z,9.7
2022-12-26T02:55:33.371Z,9.7
2022-12-26T02:56:36.349Z,9.7
2022-12-26T02:57:39.606Z,9.7
2022-12-26T02:58:43.038Z,9.6
2022-12-26T02:59:57.845Z,9.6
2022-12-26T03:01:01.190Z,9.6
2022-12-26T03:02:05.979Z,9.7
2022-12-26T03:03:10.659Z,9.6
2022-12-26T03:04:13.900Z,9.6
2022-12-26T03:05:16.406Z,9.6
2022-12-26T03:06:19.773Z,9.6
2022-12-26T03:07:23.119Z,9.6
2022-12-26T03:08:26.118Z,9.6
2022-12-26T03:09:29.158Z,9.6
2022-12-26T03:10:32.338Z,9.6
2022-12-26T03:11:35.744Z,9.6
2022-12-26T03:12:38.535Z,9.6
2022-12-26T03:13:41.669Z,9.6
2022-12-26T03:14:44.746Z,9.6
2022-12-26T03:15:47.076Z,9.6
2022-12-26T03:16:51.080Z,9.6
2022-12-26T03:17:54.895Z,9.6
2022-12-26T03:19:01.792Z,9.6
2022-12-26T03:20:05.587Z,9.6
2022-12-26T03:21:09.279Z,9.6
2022-12-26T03:22:12.317Z,9.6
2022-12-26T03:23:15.690Z,9.6
2022-12-26T03:24:19.410Z,9.6
2022-12-26T03:25:22.490Z,9.6
2022-12-26T03:26:25.292Z,9.6
2022-12-26T03:27:28.347Z,9.6
2022-12-26T03:28:30.584Z,9.6
2022-12-26T03:29:33.656Z,9.6
2022-12-26T03:30:37.250Z,9.6
2022-12-26T03:31:41.518Z,9.6
2022-12-26T03:32:45.277Z,9.6
2022-12-26T03:33:48.640Z,9.6
2022-12-26T03:34:52.740Z,9.6
2022-12-26T03:35:55.957Z,9.6
2022-12-26T03:36:59.032Z,9.6
2022-12-26T03:38:02.284Z,9.6
2022-12-26T03:39:05.424Z,9.6
2022-12-26T03:40:08.186Z,9.6
2022-12-26T03:41:11.012Z,9.6
2022-12-26T03:42:14.094Z,9.6
2022-12-26T03:43:17.218Z,9.6
2022-12-26T03:44:20.670Z,9.6
2022-12-26T03:45:24.342Z,9.6
2022-12-26T03:46:27.110Z,9.6
2022-12-26T03:47:30.244Z,9.6
2022-12-26T03:48:33.542Z,9.6
2022-12-26T03:49:36.613Z,9.6
2022-12-26T03:50:39.514Z,9.7
2022-12-26T03:51:43.878Z,9.6
2022-12-26T03:52:47.078Z,9.6
2022-12-26T03:53:50.077Z,9.7
2022-12-26T03:54:53.191Z,9.7
2022-12-26T03:55:56.961Z,9.7
2022-12-26T03:57:00.344Z,9.7
2022-12-26T03:58:03.448Z,9.6
2022-12-26T03:59:06.802Z,9.6
2022-12-26T04:00:10.322Z,9.7
2022-12-26T04:01:13.826Z,9.6
2022-12-26T04:02:17.700Z,9.6
2022-12-26T04:03:20.428Z,9.6
2022-12-26T04:04:24.099Z,9.6
2022-12-26T04:05:27.548Z,9.6
2022-12-26T04:06:31.097Z,9.6
2022-12-26T04:07:34.217Z,9.6
2022-12-26T04:08:37.588Z,9.6
2022-12-26T04:09:40.891Z,9.6
2022-12-26T04:10:43.878Z,9.6
2022-12-26T04:11:46.784Z,9.6
2022-12-26T04:12:50.123Z,9.6
2022-12-26T04:13:53.867Z,9.6
2022-12-26T04:14:57.162Z,9.6
2022-12-26T04:16:01.616Z,9.6
2022-12-26T04:17:04.648Z,9.6
2022-12-26T04:18:08.036Z,9.6
2022-12-26T04:19:10.818Z,9.6
2022-12-26T04:20:14.548Z,9.6
2022-12-26T04:21:17.534Z,9.6
2022-12-26T04:22:21.336Z,9.6
2022-12-26T04:23:24.632Z,9.6
2022-12-26T04:24:28.023Z,9.6
2022-12-26T04:25:52.462Z,9.6
2022-12-26T04:26:55.908Z,9.6
2022-12-26T04:27:59.637Z,9.6
2022-12-26T04:29:01.995Z,9.6
2022-12-26T04:30:05.396Z,9.6
2022-12-26T04:31:08.385Z,9.6
2022-12-26T04:32:11.800Z,9.6
2022-12-26T04:33:14.626Z,9.6
2022-12-26T04:34:18.309Z,9.6
2022-12-26T04:35:21.793Z,9.5
2022-12-26T04:36:25.181Z,9.5
2022-12-26T04:37:28.959Z,9.5
2022-12-26T04:38:32.161Z,9.5
2022-12-26T04:39:35.559Z,9.5
2022-12-26T04:40:38.677Z,9.5
2022-12-26T04:41:41.977Z,9.5
2022-12-26T04:42:45.136Z,9.5
2022-12-26T04:43:52.631Z,9.5
2022-12-26T04:44:55.764Z,9.5
2022-12-26T04:45:59.670Z,9.5
2022-12-26T04:47:03.532Z,9.5
2022-12-26T04:48:06.247Z,9.5
2022-12-26T04:49:08.709Z,9.5
2022-12-26T04:50:11.670Z,9.5
2022-12-26T04:51:15.241Z,9.5
2022-12-26T04:52:18.268Z,9.5
2022-12-26T04:53:21.836Z,9.5
2022-12-26T04:54:25.200Z,9.4
2022-12-26T04:55:27.913Z,9.5
2022-12-26T04:56:31.608Z,9.5
2022-12-26T04:57:34.819Z,9.5
2022-12-26T04:58:38.515Z,9.5
2022-12-26T04:59:41.267Z,9.5
2022-12-26T05:00:44.617Z,9.5
2022-12-26T05:01:48.847Z,9.5
2022-12-26T05:02:52.860Z,9.5
2022-12-26T05:03:56.709Z,9.5
2022-12-26T05:05:00.234Z,9.5
2022-12-26T05:06:03.582Z,9.5
2022-12-26T05:07:07.337Z,9.5
2022-12-26T05:08:10.054Z,9.5
2022-12-26T05:09:14.152Z,9.5
2022-12-26T05:10:16.630Z,9.5
2022-12-26T05:11:19.980Z,9.5
2022-12-26T05:12:22.748Z,9.5
2022-12-26T05:13:25.815Z,9.5
2022-12-26T05:14:28.829Z,9.5
2022-12-26T05:15:31.638Z,9.5
2022-12-26T05:16:35.540Z,9.5
2022-12-26T05:17:38.044Z,9.5
2022-12-26T05:18:40.878Z,9.5
2022-12-26T05:19:44.152Z,9.5
2022-12-26T05:20:48.035Z,9.5
2022-12-26T05:21:52.079Z,9.5
2022-12-26T05:22:54.939Z,9.5
2022-12-26T05:23:58.322Z,9.5
2022-12-26T05:25:02.596Z,9.5
2022-12-26T05:26:06.016Z,9.4
2022-12-26T05:27:09.306Z,9.5
2022-12-26T05:28:11.710Z,9.5
2022-12-26T05:29:15.369Z,9.5
2022-12-26T05:30:19.171Z,9.5
2022-12-26T05:31:23.086Z,9.5
2022-12-26T05:32:37.988Z,9.5
2022-12-26T05:33:40.787Z,9.5
2022-12-26T05:34:43.345Z,9.5
2022-12-26T05:35:47.008Z,9.5
2022-12-26T05:36:50.033Z,9.5
2022-12-26T05:37:52.811Z,9.5
2022-12-26T05:38:56.477Z,9.5
2022-12-26T05:39:59.878Z,9.5
2022-12-26T05:41:03.405Z,9.5
2022-12-26T05:42:06.271Z,9.5
2022-12-26T05:43:09.328Z,9.5
2022-12-26T05:44:11.929Z,9.5
2022-12-26T05:45:14.656Z,9.5
2022-12-26T05:46:17.865Z,9.5
2022-12-26T05:47:20.726Z,9.5
2022-12-26T05:48:24.127Z,9.5
2022-12-26T05:49:27.231Z,9.5
2022-12-26T05:50:30.041Z,9.5
2022-12-26T05:51:32.830Z,9.5
2022-12-26T05:52:35.999Z,9.6
2022-12-26T05:53:39.390Z,9.6
2022-12-26T05:54:42.992Z,9.6
2022-12-26T05:55:46.004Z,9.6
2022-12-26T05:56:50.669Z,9.6
2022-12-26T05:57:54.385Z,9.6
2022-12-26T05:58:58.812Z,9.6
2022-12-26T06:00:02.560Z,9.6
2022-12-26T06:01:05.478Z,9.6
2022-12-26T06:02:09.195Z,9.6
2022-12-26T06:03:13.473Z,9.6
2022-12-26T06:04:16.828Z,9.6
2022-12-26T06:05:19.639Z,9.6
2022-12-26T06:06:22.636Z,9.6
2022-12-26T06:07:25.959Z,9.7
2022-12-26T06:08:29.323Z,9.7
2022-12-26T06:09:32.739Z,9.7
2022-12-26T06:10:35.668Z,9.7
2022-12-26T06:11:49.266Z,9.7
2022-12-26T06:12:53.016Z,9.7
2022-12-26T06:13:56.811Z,9.7
2022-12-26T06:15:00.335Z,9.7
2022-12-26T06:16:03.645Z,9.7
2022-12-26T06:17:07.231Z,9.8
2022-12-26T06:18:10.116Z,9.8
2022-12-26T06:19:12.858Z,9.8
2022-12-26T06:20:15.121Z,9.8
2022-12-26T06:21:18.234Z,9.8
2022-12-26T06:22:21.310Z,9.8
2022-12-26T06:23:24.190Z,9.8
2022-12-26T06:24:27.611Z,9.8
2022-12-26T06:25:31.432Z,9.9
2022-12-26T06:26:35.302Z,9.9
2022-12-26T06:27:38.779Z,9.9
2022-12-26T06:28:42.654Z,9.9
2022-12-26T06:29:46.086Z,9.9
2022-12-26T06:30:49.153Z,9.9
2022-12-26T06:31:52.723Z,9.9
2022-12-26T06:32:56.034Z,9.9
2022-12-26T06:33:59.393Z,9.9
2022-12-26T06:35:03.178Z,9.9
2022-12-26T06:36:06.076Z,9.9
2022-12-26T06:37:09.463Z,9.9
2022-12-26T06:38:12.315Z,9.9
2022-12-26T06:39:15.464Z,9.9
2022-12-26T06:40:19.189Z,9.9
2022-12-26T06:41:22.616Z,9.9
2022-12-26T06:42:25.749Z,10
2022-12-26T06:43:28.206Z,10
2022-12-26T06:44:31.418Z,10
2022-12-26T06:45:34.830Z,10
2022-12-26T06:46:37.572Z,10
2022-12-26T06:47:41.206Z,10
2022-12-26T06:48:44.915Z,10
2022-12-26T06:49:48.546Z,10
2022-12-26T06:50:51.288Z,10
2022-12-26T06:51:53.518Z,10
2022-12-26T06:52:55.762Z,10
2022-12-26T06:53:58.272Z,10
2022-12-26T06:55:01.388Z,10
2022-12-26T06:56:04.425Z,10
2022-12-26T06:57:08.437Z,10
2022-12-26T06:58:11.626Z,10
2022-12-26T06:59:14.896Z,10
2022-12-26T07:00:17.778Z,10
2022-12-26T07:01:21.548Z,10
2022-12-26T07:02:26.006Z,10.1
2022-12-26T07:03:29.589Z,10
2022-12-26T07:04:32.882Z,10.1
2022-12-26T07:05:36.325Z,10.1
2022-12-26T07:06:38.855Z,10.1
2022-12-26T07:07:41.565Z,10.1
2022-12-26T07:08:45.220Z,10.1
2022-12-26T07:09:48.213Z,10.1
2022-12-26T07:10:51.114Z,10.1
2022-12-26T07:11:54.210Z,10.1
2022-12-26T07:12:57.377Z,10.1
2022-12-26T07:14:01.071Z,10.2
2022-12-26T07:15:04.253Z,10.1
2022-12-26T07:16:07.825Z,10.1
2022-12-26T07:17:11.131Z,10.2
2022-12-26T07:18:14.562Z,10.1
2022-12-26T07:19:17.732Z,10.2
2022-12-26T07:20:21.472Z,10.2
2022-12-26T07:21:24.191Z,10.2
2022-12-26T07:22:27.567Z,10.2
2022-12-26T07:23:30.356Z,10.2
2022-12-26T07:24:33.373Z,10.2
2022-12-26T07:25:36.180Z,10.1
2022-12-26T07:26:39.192Z,10.2
2022-12-26T07:27:41.614Z,10.2
2022-12-26T07:28:44.646Z,10.2
2022-12-26T07:29:48.409Z,10.2
2022-12-26T07:30:52.135Z,10.2
2022-12-26T07:31:56.343Z,10.2
2022-12-26T07:32:59.090Z,10.2
2022-12-26T07:34:02.132Z,10.2
2022-12-26T07:35:05.543Z,10.2
2022-12-26T07:36:08.921Z,10.2
2022-12-26T07:37:12.058Z,10.1
2022-12-26T07:38:14.875Z,10.1
2022-12-26T07:39:17.890Z,10.1
2022-12-26T07:40:21.306Z,10.1
2022-12-26T07:41:24.197Z,10.1
2022-12-26T07:42:27.683Z,10.1
2022-12-26T07:43:31.114Z,10.1
2022-12-26T07:44:34.249Z,10.1
2022-12-26T07:45:46.320Z,10.1
2022-12-26T07:46:49.839Z,10.1
2022-12-26T07:47:53.666Z,10.1
2022-12-26T07:48:56.683Z,10.1
2022-12-26T07:49:59.424Z,10.1
2022-12-26T07:51:02.208Z,10.1
2022-12-26T07:52:05.993Z,10.1
2022-12-26T07:53:08.714Z,10.1
2022-12-26T07:54:13.028Z,10.1
2022-12-26T07:55:16.668Z,10.2
2022-12-26T07:56:18.563Z,10.2
2022-12-26T07:57:50.170Z,10.2
2022-12-26T07:58:53.642Z,10.2
2022-12-26T07:59:57.458Z,10.2
2022-12-26T08:01:00.214Z,10.2
2022-12-26T08:02:04.816Z,10.2
2022-12-26T08:03:10.027Z,10.2
2022-12-26T08:04:14.836Z,10.2
2022-12-26T08:05:18.266Z,10.2
2022-12-26T08:06:21.081Z,10.2
2022-12-26T08:07:24.325Z,10.3
2022-12-26T08:08:27.195Z,10.3
2022-12-26T08:09:30.590Z,10.3
2022-12-26T08:10:34.367Z,10.3
2022-12-26T08:11:37.170Z,10.3
2022-12-26T08:12:40.263Z,10.3
2022-12-26T08:13:43.671Z,10.3
2022-12-26T08:14:46.715Z,10.3
2022-12-26T08:15:48.891Z,10.3
2022-12-26T08:16:54.841Z,10.3
2022-12-26T08:17:57.808Z,10.3
2022-12-26T08:19:01.887Z,10.3
2022-12-26T08:20:05.215Z,10.4
2022-12-26T08:21:08.635Z,10.4
2022-12-26T08:22:11.939Z,10.4
2022-12-26T08:23:14.714Z,10.4
2022-12-26T08:24:17.915Z,10.4
2022-12-26T08:25:22.886Z,10.4
2022-12-26T08:26:25.637Z,10.4
2022-12-26T08:27:28.724Z,10.4
2022-12-26T08:28:31.897Z,10.4
2022-12-26T08:29:34.433Z,10.4
2022-12-26T08:30:37.252Z,10.4
2022-12-26T08:31:40.008Z,10.4
2022-12-26T08:32:47.271Z,10.4
2022-12-26T08:33:50.390Z,10.5
2022-12-26T08:34:53.919Z,10.5
2022-12-26T08:35:57.091Z,10.5
2022-12-26T08:36:59.542Z,10.5
2022-12-26T08:38:03.572Z,10.5
2022-12-26T08:39:06.949Z,10.5
2022-12-26T08:40:10.025Z,10.6
2022-12-26T08:41:45.811Z,10.6
2022-12-26T08:43:53.060Z,10.6
2022-12-26T08:45:32.030Z,10.6
2022-12-26T08:46:35.525Z,10.6
2022-12-26T08:47:39.346Z,10.7
2022-12-26T08:48:43.282Z,10.7
2022-12-26T08:49:47.017Z,10.7
2022-12-26T08:50:50.774Z,10.7
2022-12-26T08:51:53.985Z,10.7
2022-12-26T08:52:57.335Z,10.7
2022-12-26T08:54:00.915Z,10.7
2022-12-26T08:55:03.747Z,10.8
2022-12-26T08:56:06.813Z,10.7
2022-12-26T08:57:09.912Z,10.8
2022-12-26T08:58:13.736Z,10.8
2022-12-26T08:59:16.392Z,10.8
2022-12-26T09:00:18.596Z,10.8
2022-12-26T09:01:22.219Z,10.8
2022-12-26T09:02:26.911Z,10.8
2022-12-26T09:03:30.643Z,10.8
2022-12-26T09:04:34.061Z,10.8
2022-12-26T09:05:37.098Z,10.7
2022-12-26T09:06:41.880Z,10.7
2022-12-26T09:07:44.629Z,10.7
2022-12-26T09:08:47.984Z,10.7
2022-12-26T09:09:51.365Z,10.7
2022-12-26T09:10:54.419Z,10.7
2022-12-26T09:11:57.755Z,10.7
2022-12-26T09:13:00.365Z,10.7
2022-12-26T09:14:03.265Z,10.7
2022-12-26T09:15:06.613Z,10.7
2022-12-26T09:16:09.167Z,10.7
2022-12-26T09:17:12.930Z,10.7
2022-12-26T09:18:15.540Z,10.7
2022-12-26T09:19:19.416Z,10.7
2022-12-26T09:20:23.528Z,10.7
2022-12-26T09:21:26.944Z,10.7
2022-12-26T09:22:36.171Z,10.7
2022-12-26T09:23:39.312Z,10.7
2022-12-26T09:24:42.461Z,10.7
2022-12-26T09:25:45.251Z,10.7
2022-12-26T09:26:48.070Z,10.7
2022-12-26T09:27:59.990Z,10.8
2022-12-26T09:29:03.817Z,10.7
2022-12-26T09:30:07.241Z,10.8
2022-12-26T09:31:10.133Z,10.8
2022-12-26T09:32:15.028Z,10.8
2022-12-26T09:33:18.408Z,10.8
2022-12-26T09:34:21.412Z,10.8
2022-12-26T09:35:24.501Z,10.8
2022-12-26T09:36:27.888Z,10.8
2022-12-26T09:37:31.643Z,10.8
2022-12-26T09:38:35.091Z,10.8
2022-12-26T09:39:37.633Z,10.8
2022-12-26T09:40:40.686Z,10.8
2022-12-26T09:41:44.844Z,10.8
2022-12-26T09:42:48.240Z,10.8
2022-12-26T09:43:51.821Z,10.8
2022-12-26T09:44:54.536Z,10.9
2022-12-26T09:45:57.937Z,10.9
2022-12-26T09:47:00.648Z,10.9
2022-12-26T09:48:03.489Z,10.9
2022-12-26T09:49:06.846Z,10.9
2022-12-26T09:50:10.178Z,10.9
2022-12-26T09:51:13.530Z,10.9
2022-12-26T09:52:17.566Z,10.9
2022-12-26T09:53:20.629Z,10.9
2022-12-26T09:54:24.459Z,10.9
2022-12-26T09:55:27.645Z,11
2022-12-26T09:57:06.372Z,11
2022-12-26T09:58:17.819Z,11
2022-12-26T09:59:20.245Z,11
2022-12-26T10:00:23.240Z,11
2022-12-26T10:01:26.748Z,11
2022-12-26T10:02:30.173Z,11
2022-12-26T10:03:33.999Z,11.1
2022-12-26T10:04:37.214Z,11.1
2022-12-26T10:05:40.917Z,11
2022-12-26T10:06:44.078Z,11.1
2022-12-26T10:07:47.210Z,11.1
2022-12-26T10:08:50.481Z,11.1
2022-12-26T10:09:54.009Z,11.1
2022-12-26T10:10:56.807Z,11.1
2022-12-26T10:12:00.158Z,11.1
2022-12-26T10:13:04.247Z,11.1
2022-12-26T10:14:07.684Z,11.1
2022-12-26T10:15:11.319Z,11.1
2022-12-26T10:16:14.827Z,11.1
2022-12-26T10:17:18.171Z,11.1
2022-12-26T10:18:21.184Z,11.1
2022-12-26T10:19:33.456Z,11.2
2022-12-26T10:20:36.567Z,11.2
2022-12-26T10:21:39.940Z,11.2
2022-12-26T10:22:43.336Z,11.1
2022-12-26T10:23:46.195Z,11.2
2022-12-26T10:24:49.524Z,11.2
2022-12-26T10:25:53.110Z,11.2
2022-12-26T10:26:56.210Z,11.2
2022-12-26T10:27:59.039Z,11.2
2022-12-26T10:29:02.123Z,11.3
2022-12-26T10:30:04.878Z,11.2
2022-12-26T10:31:08.236Z,11.2
2022-12-26T10:32:12.393Z,11.3
2022-12-26T10:33:15.382Z,11.2
2022-12-26T10:34:18.107Z,11.3
2022-12-26T10:35:21.153Z,11.3
2022-12-26T10:36:23.975Z,11.2
2022-12-26T10:37:27.063Z,11.3
2022-12-26T10:38:30.448Z,11.3
2022-12-26T10:39:33.988Z,11.3
2022-12-26T10:40:37.405Z,11.3
2022-12-26T10:41:41.925Z,11.3
2022-12-26T10:42:45.062Z,11.3
2022-12-26T10:43:48.719Z,11.3
2022-12-26T10:44:50.952Z,11.3
2022-12-26T10:45:54.385Z,11.3
2022-12-26T10:46:57.160Z,11.3
2022-12-26T10:48:00.205Z,11.3
2022-12-26T10:49:03.632Z,11.3
2022-12-26T10:50:06.799Z,11.4
2022-12-26T10:51:10.277Z,11.3
2022-12-26T10:52:13.050Z,11.3
2022-12-26T10:53:15.753Z,11.4
2022-12-26T10:54:18.691Z,11.4
2022-12-26T10:55:32.089Z,11.4
2022-12-26T10:56:38.715Z,11.4
2022-12-26T10:57:42.306Z,11.4
2022-12-26T10:58:45.365Z,11.4
2022-12-26T10:59:48.755Z,11.4
2022-12-26T11:00:51.944Z,11.4
2022-12-26T11:01:55.079Z,11.4
2022-12-26T11:02:59.438Z,11.4
2022-12-26T11:04:03.950Z,11.4
2022-12-26T11:06:08.333Z,11.4
2022-12-26T11:07:13.464Z,11.5
2022-12-26T11:08:16.930Z,11.4
2022-12-26T11:09:20.371Z,11.4
2022-12-26T11:10:23.749Z,11.4
2022-12-26T11:11:27.245Z,11.4
2022-12-26T11:12:30.679Z,11.4
2022-12-26T11:13:34.267Z,11.4
2022-12-26T11:14:37.726Z,11.4
2022-12-26T11:15:40.543Z,11.4
2022-12-26T11:16:44.588Z,11.3
2022-12-26T11:17:47.339Z,11.3
2022-12-26T11:18:50.369Z,11.3
2022-12-26T11:19:53.559Z,11.4
2022-12-26T11:20:56.583Z,11.3
2022-12-26T11:21:59.028Z,11.3
2022-12-26T11:23:02.564Z,11.4
2022-12-26T11:24:05.640Z,11.4
2022-12-26T11:25:09.037Z,11.4
2022-12-26T11:26:12.631Z,11.4
2022-12-26T11:27:16.359Z,11.4
2022-12-26T11:28:19.635Z,11.4
2022-12-26T11:29:23.500Z,11.4
2022-12-26T11:30:26.713Z,11.4
2022-12-26T11:31:30.265Z,11.4
2022-12-26T11:32:33.436Z,11.4
2022-12-26T11:33:36.807Z,11.4
2022-12-26T11:34:40.193Z,11.4
2022-12-26T11:35:44.181Z,11.4
2022-12-26T11:36:47.277Z,11.4
2022-12-26T11:37:50.671Z,11.4
2022-12-26T11:38:53.737Z,11.4
2022-12-26T11:39:57.191Z,11.4
2022-12-26T11:41:01.430Z,11.4
2022-12-26T11:42:04.746Z,11.4
2022-12-26T11:43:08.414Z,11.5
2022-12-26T11:44:12.258Z,11.5
2022-12-26T11:45:15.500Z,11.5
2022-12-26T11:46:19.198Z,11.5
2022-12-26T11:47:22.753Z,11.5
2022-12-26T11:48:41.875Z,11.5
2022-12-26T11:49:45.209Z,11.5
2022-12-26T11:50:48.952Z,11.5
2022-12-26T11:52:00.686Z,11.5
2022-12-26T11:53:04.443Z,11.5
2022-12-26T11:54:07.943Z,11.5
2022-12-26T11:55:10.664Z,11.5
2022-12-26T11:56:14.322Z,11.5
2022-12-26T11:57:18.396Z,11.5
2022-12-26T11:58:21.261Z,11.5
2022-12-26T11:59:25.017Z,11.5
2022-12-26T12:00:28.731Z,11.5
2022-12-26T12:01:32.290Z,11.5
2022-12-26T12:02:35.640Z,11.5
2022-12-26T12:03:49.816Z,11.5
2022-12-26T12:04:53.715Z,11.5
2022-12-26T12:05:57.127Z,11.5
2022-12-26T12:06:59.634Z,11.5
2022-12-26T12:08:02.678Z,11.5
2022-12-26T12:09:07.207Z,11.5
2022-12-26T12:10:09.930Z,11.5
2022-12-26T12:11:13.239Z,11.6
2022-12-26T12:12:16.382Z,11.6
2022-12-26T12:13:19.561Z,11.6
2022-12-26T12:14:23.301Z,11.6
2022-12-26T12:15:26.740Z,11.6
2022-12-26T12:16:30.892Z,11.6
2022-12-26T12:17:34.079Z,11.7
2022-12-26T12:18:37.177Z,11.6
2022-12-26T12:19:40.369Z,11.7
2022-12-26T12:20:52.434Z,11.6
2022-12-26T12:21:55.829Z,11.6
2022-12-26T12:22:59.679Z,11.7
2022-12-26T12:24:03.936Z,11.7
2022-12-26T12:25:06.540Z,11.6
2022-12-26T12:26:09.870Z,11.7
2022-12-26T12:27:14.020Z,11.6
2022-12-26T12:28:17.101Z,11.7
2022-12-26T12:29:20.470Z,11.6
2022-12-26T12:30:24.210Z,11.6
2022-12-26T12:31:28.461Z,11.6
2022-12-26T12:32:32.556Z,11.6
2022-12-26T12:33:35.006Z,11.6
2022-12-26T12:34:37.445Z,11.6
2022-12-26T12:35:40.175Z,11.7
2022-12-26T12:36:43.790Z,11.6
2022-12-26T12:37:46.922Z,11.6
2022-12-26T12:38:57.278Z,11.7
2022-12-26T12:40:00.083Z,11.6
2022-12-26T12:41:03.555Z,11.6
2022-12-26T12:42:06.660Z,11.6
2022-12-26T12:43:09.980Z,11.6
2022-12-26T12:44:14.345Z,11.6
2022-12-26T12:45:17.155Z,11.6
2022-12-26T12:46:20.591Z,11.6
2022-12-26T12:47:23.321Z,11.6
2022-12-26T12:48:26.947Z,11.6
2022-12-26T12:49:30.484Z,11.7
2022-12-26T12:50:32.654Z,11.7
2022-12-26T12:51:35.121Z,11.7
2022-12-26T12:52:38.788Z,11.7
2022-12-26T12:53:40.966Z,11.7
2022-12-26T12:54:44.404Z,11.7
2022-12-26T12:55:47.675Z,11.7
2022-12-26T12:56:50.500Z,11.7
2022-12-26T12:57:53.939Z,11.7
2022-12-26T12:58:57.299Z,11.7
2022-12-26T13:00:00.301Z,11.7
2022-12-26T13:01:04.363Z,11.7
2022-12-26T13:02:21.078Z,11.7
2022-12-26T13:03:25.506Z,11.7
2022-12-26T13:04:29.481Z,11.7
2022-12-26T13:05:32.779Z,11.7
2022-12-26T13:06:35.827Z,11.7
2022-12-26T13:07:48.188Z,11.7
2022-12-26T13:08:51.506Z,11.7
2022-12-26T13:09:53.965Z,11.7
2022-12-26T13:10:57.022Z,11.8
2022-12-26T13:12:00.129Z,11.8
2022-12-26T13:13:02.865Z,11.8
2022-12-26T13:14:05.936Z,11.8
2022-12-26T13:15:08.556Z,11.8
2022-12-26T13:16:11.423Z,11.8
2022-12-26T13:17:15.362Z,11.8
2022-12-26T13:18:17.812Z,11.8
2022-12-26T13:19:20.801Z,11.8
2022-12-26T13:20:24.253Z,11.8
2022-12-26T13:21:26.998Z,11.8
2022-12-26T13:22:30.622Z,11.8
2022-12-26T13:23:33.406Z,11.8
2022-12-26T13:24:36.793Z,11.8
2022-12-26T13:25:39.874Z,11.8
2022-12-26T13:26:42.870Z,11.8
2022-12-26T13:27:45.571Z,11.7
2022-12-26T13:28:48.791Z,11.7
2022-12-26T13:29:51.862Z,11.7
2022-12-26T13:30:55.506Z,11.7
2022-12-26T13:31:58.583Z,11.7
2022-12-26T13:33:01.731Z,11.7
2022-12-26T13:34:04.461Z,11.7
2022-12-26T13:35:07.210Z,11.6
2022-12-26T13:36:10.410Z,11.6
2022-12-26T13:37:12.670Z,11.6
2022-12-26T13:38:15.658Z,11.6
2022-12-26T13:39:18.115Z,11.6
2022-12-26T13:40:21.402Z,11.5
2022-12-26T13:41:24.822Z,11.5
2022-12-26T13:42:28.207Z,11.5
2022-12-26T13:43:31.217Z,11.5
2022-12-26T13:44:34.196Z,11.5
2022-12-26T13:45:36.973Z,11.4
2022-12-26T13:46:40.522Z,11.5
2022-12-26T13:47:43.234Z,11.4
2022-12-26T13:48:46.898Z,11.4
2022-12-26T13:49:49.621Z,11.4
2022-12-26T13:50:57.072Z,11.4
2022-12-26T13:52:00.920Z,11.4
2022-12-26T13:53:04.122Z,11.4
2022-12-26T13:54:07.835Z,11.5
2022-12-26T13:55:10.317Z,11.5
2022-12-26T13:56:13.297Z,11.5
2022-12-26T13:57:16.070Z,11.4
2022-12-26T13:58:19.389Z,11.5
2022-12-26T13:59:22.733Z,11.4
2022-12-26T14:00:25.464Z,11.4
2022-12-26T14:01:29.431Z,11.4
2022-12-26T14:03:20.713Z,11.4
2022-12-26T14:04:25.913Z,11.4
2022-12-26T14:05:29.455Z,11.4
2022-12-26T14:06:32.853Z,11.4
2022-12-26T14:07:36.332Z,11.4
2022-12-26T14:08:39.392Z,11.4
2022-12-26T14:09:41.689Z,11.4
2022-12-26T14:10:44.125Z,11.4
2022-12-26T14:11:47.857Z,11.4
2022-12-26T14:12:51.332Z,11.4
2022-12-26T14:13:55.034Z,11.4
2022-12-26T14:14:59.954Z,11.3
2022-12-26T14:16:03.597Z,11.4
2022-12-26T14:17:06.507Z,11.3
2022-12-26T14:18:10.152Z,11.3
2022-12-26T14:19:12.952Z,11.3
2022-12-26T14:20:16.693Z,11.3
2022-12-26T14:21:19.590Z,11.4
2022-12-26T14:22:23.329Z,11.4
2022-12-26T14:23:27.123Z,11.3
2022-12-26T14:24:29.340Z,11.3
2022-12-26T14:25:32.891Z,11.3
2022-12-26T14:26:36.514Z,11.3